KPNA

Ralph Wenz Field Airport

Pinedale, Wyoming, USA
METAR KPNA 180155Z AUTO 30011KT 10SM SCT120 22/02 A3031 RMK AO2
Observed Flight Rules
Aug-18 @ 01:55 UTC (33 minutes ago) Visual Flight Rules
Wind Visibility Clouds
300° at 11 knots 10 miles
  • Scattered at 12,000' AGL
Temperatures Readings
Current 22°C / 72°F
Dewpoint 2°C / 36°F
Humidity 27%
Altimeter 30.31" Hg
Pressure 1026 hPa
Elevation 2160
METAR KPNA 180155Z AUTO 30011KT 10SM SCT120 22/02 A3031 RMK AO2
Observed Flight Rules
Aug-18 @ 01:55 UTC
(33 minutes ago)
VFR
Wind Visibility
300° at 11 knots 10 miles
Clouds
  • Scattered at 12,000' AGL
Temperature Dewpoint
22°C / 72°F 2°C / 36°F
Humidity Altimeter Pressure
27% 30.31" Hg 1026 hPa